sensor_id;sensor_type;location;lat;lon;timestamp;temperature;humidity
39045;DHT22;52192;52.002;5.956;2023-04-24T00:01:43;12.00;82.60
39045;DHT22;52192;52.002;5.956;2023-04-24T00:04:09;12.00;82.60
39045;DHT22;52192;52.002;5.956;2023-04-24T00:06:37;12.00;82.60
39045;DHT22;52192;52.002;5.956;2023-04-24T00:09:03;12.00;82.50
39045;DHT22;52192;52.002;5.956;2023-04-24T00:11:29;12.00;82.60
39045;DHT22;52192;52.002;5.956;2023-04-24T00:13:56;12.00;82.50
39045;DHT22;52192;52.002;5.956;2023-04-24T00:16:22;12.10;82.40
39045;DHT22;52192;52.002;5.956;2023-04-24T00:18:48;12.10;82.40
39045;DHT22;52192;52.002;5.956;2023-04-24T00:21:15;12.10;82.40
39045;DHT22;52192;52.002;5.956;2023-04-24T00:23:43;12.10;82.40
39045;DHT22;52192;52.002;5.956;2023-04-24T00:26:10;12.20;82.30
39045;DHT22;52192;52.002;5.956;2023-04-24T00:28:35;12.10;82.30
39045;DHT22;52192;52.002;5.956;2023-04-24T00:31:01;12.10;82.40
39045;DHT22;52192;52.002;5.956;2023-04-24T00:33:27;12.10;82.40
39045;DHT22;52192;52.002;5.956;2023-04-24T00:35:53;12.10;82.60
39045;DHT22;52192;52.002;5.956;2023-04-24T00:38:18;12.00;82.80
39045;DHT22;52192;52.002;5.956;2023-04-24T00:40:44;11.90;82.90
39045;DHT22;52192;52.002;5.956;2023-04-24T00:43:10;11.90;83.00
39045;DHT22;52192;52.002;5.956;2023-04-24T00:45:37;11.90;83.00
39045;DHT22;52192;52.002;5.956;2023-04-24T00:48:03;11.90;83.10
39045;DHT22;52192;52.002;5.956;2023-04-24T00:50:30;11.90;83.00
39045;DHT22;52192;52.002;5.956;2023-04-24T00:52:56;11.90;83.00
39045;DHT22;52192;52.002;5.956;2023-04-24T00:55:21;11.90;83.10
39045;DHT22;52192;52.002;5.956;2023-04-24T00:57:49;11.90;83.30
39045;DHT22;52192;52.002;5.956;2023-04-24T01:00:16;11.90;83.30
39045;DHT22;52192;52.002;5.956;2023-04-24T01:02:43;11.90;83.40
39045;DHT22;52192;52.002;5.956;2023-04-24T01:05:12;11.90;83.30
39045;DHT22;52192;52.002;5.956;2023-04-24T01:07:39;11.90;83.50
39045;DHT22;52192;52.002;5.956;2023-04-24T01:10:07;11.90;83.70
39045;DHT22;52192;52.002;5.956;2023-04-24T01:12:33;11.90;83.70
39045;DHT22;52192;52.002;5.956;2023-04-24T01:14:59;11.90;83.70
39045;DHT22;52192;52.002;5.956;2023-04-24T01:17:25;11.90;83.80
39045;DHT22;52192;52.002;5.956;2023-04-24T01:19:51;11.90;83.80
39045;DHT22;52192;52.002;5.956;2023-04-24T01:22:20;12.00;83.60
39045;DHT22;52192;52.002;5.956;2023-04-24T01:24:46;12.00;83.70
39045;DHT22;52192;52.002;5.956;2023-04-24T01:27:12;12.00;83.60
39045;DHT22;52192;52.002;5.956;2023-04-24T01:29:37;12.00;84.40
39045;DHT22;52192;52.002;5.956;2023-04-24T01:32:04;11.90;83.70
39045;DHT22;52192;52.002;5.956;2023-04-24T01:34:30;11.90;83.70
39045;DHT22;52192;52.002;5.956;2023-04-24T01:36:56;11.90;83.70
39045;DHT22;52192;52.002;5.956;2023-04-24T01:39:22;11.90;83.70
39045;DHT22;52192;52.002;5.956;2023-04-24T01:41:51;11.90;83.70
39045;DHT22;52192;52.002;5.956;2023-04-24T01:44:18;11.90;83.80
39045;DHT22;52192;52.002;5.956;2023-04-24T01:46:44;11.90;83.90
39045;DHT22;52192;52.002;5.956;2023-04-24T01:49:10;12.00;83.90
39045;DHT22;52192;52.002;5.956;2023-04-24T01:51:35;12.00;83.80
39045;DHT22;52192;52.002;5.956;2023-04-24T01:54:01;12.00;83.40
39045;DHT22;52192;52.002;5.956;2023-04-24T01:56:29;12.00;83.50
39045;DHT22;52192;52.002;5.956;2023-04-24T01:58:56;12.00;83.70
39045;DHT22;52192;52.002;5.956;2023-04-24T02:01:24;11.90;84.00
39045;DHT22;52192;52.002;5.956;2023-04-24T02:03:50;11.80;84.40
39045;DHT22;52192;52.002;5.956;2023-04-24T02:06:16;11.80;84.50
39045;DHT22;52192;52.002;5.956;2023-04-24T02:08:41;11.80;84.40
39045;DHT22;52192;52.002;5.956;2023-04-24T02:11:09;11.80;84.50
39045;DHT22;52192;52.002;5.956;2023-04-24T02:13:35;11.80;84.50
39045;DHT22;52192;52.002;5.956;2023-04-24T02:16:01;11.90;84.50
39045;DHT22;52192;52.002;5.956;2023-04-24T02:18:26;11.90;84.80
39045;DHT22;52192;52.002;5.956;2023-04-24T02:20:52;12.00;84.10
39045;DHT22;52192;52.002;5.956;2023-04-24T02:23:19;11.90;84.10
39045;DHT22;52192;52.002;5.956;2023-04-24T02:25:44;11.90;84.10
39045;DHT22;52192;52.002;5.956;2023-04-24T02:28:11;12.00;84.20
39045;DHT22;52192;52.002;5.956;2023-04-24T02:30:36;12.00;84.30
39045;DHT22;52192;52.002;5.956;2023-04-24T02:33:02;11.90;84.40
39045;DHT22;52192;52.002;5.956;2023-04-24T02:35:28;11.90;84.60
39045;DHT22;52192;52.002;5.956;2023-04-24T02:37:55;11.90;84.70
39045;DHT22;52192;52.002;5.956;2023-04-24T02:40:20;11.80;84.70
39045;DHT22;52192;52.002;5.956;2023-04-24T02:42:46;11.80;84.80
39045;DHT22;52192;52.002;5.956;2023-04-24T02:45:12;11.80;84.80
39045;DHT22;52192;52.002;5.956;2023-04-24T02:47:38;11.80;84.80
39045;DHT22;52192;52.002;5.956;2023-04-24T02:50:04;11.80;84.90
39045;DHT22;52192;52.002;5.956;2023-04-24T02:52:30;11.80;85.00
39045;DHT22;52192;52.002;5.956;2023-04-24T02:54:55;11.80;85.00
39045;DHT22;52192;52.002;5.956;2023-04-24T02:57:21;11.80;85.00
39045;DHT22;52192;52.002;5.956;2023-04-24T02:59:47;11.80;85.00
39045;DHT22;52192;52.002;5.956;2023-04-24T03:02:12;11.80;84.90
39045;DHT22;52192;52.002;5.956;2023-04-24T03:04:38;11.80;85.00
39045;DHT22;52192;52.002;5.956;2023-04-24T03:07:05;11.70;85.10
39045;DHT22;52192;52.002;5.956;2023-04-24T03:09:31;11.70;85.40
39045;DHT22;52192;52.002;5.956;2023-04-24T03:11:56;11.70;85.40
39045;DHT22;52192;52.002;5.956;2023-04-24T03:14:23;11.70;85.60
39045;DHT22;52192;52.002;5.956;2023-04-24T03:16:49;11.60;85.60
39045;DHT22;52192;52.002;5.956;2023-04-24T03:19:18;11.60;85.80
39045;DHT22;52192;52.002;5.956;2023-04-24T03:21:44;11.60;85.90
39045;DHT22;52192;52.002;5.956;2023-04-24T03:24:09;11.60;85.90
39045;DHT22;52192;52.002;5.956;2023-04-24T03:26:35;11.70;85.90
39045;DHT22;52192;52.002;5.956;2023-04-24T03:29:01;11.70;85.70
39045;DHT22;52192;52.002;5.956;2023-04-24T03:31:27;11.70;85.50
39045;DHT22;52192;52.002;5.956;2023-04-24T03:33:52;11.70;85.50
39045;DHT22;52192;52.002;5.956;2023-04-24T03:36:18;11.70;85.50
39045;DHT22;52192;52.002;5.956;2023-04-24T03:38:44;11.70;85.60
39045;DHT22;52192;52.002;5.956;2023-04-24T03:41:11;11.70;85.70
39045;DHT22;52192;52.002;5.956;2023-04-24T03:43:37;11.70;85.70
39045;DHT22;52192;52.002;5.956;2023-04-24T03:46:03;11.70;85.80
39045;DHT22;52192;52.002;5.956;2023-04-24T03:48:29;11.60;85.70
39045;DHT22;52192;52.002;5.956;2023-04-24T03:50:55;11.60;85.70
39045;DHT22;52192;52.002;5.956;2023-04-24T03:53:21;11.60;85.70
39045;DHT22;52192;52.002;5.956;2023-04-24T03:55:47;11.50;85.70
39045;DHT22;52192;52.002;5.956;2023-04-24T03:58:13;11.50;85.70
39045;DHT22;52192;52.002;5.956;2023-04-24T04:00:41;11.50;85.70
39045;DHT22;52192;52.002;5.956;2023-04-24T04:03:07;11.50;85.80
39045;DHT22;52192;52.002;5.956;2023-04-24T04:05:33;11.50;85.80
39045;DHT22;52192;52.002;5.956;2023-04-24T04:07:58;11.50;85.70
39045;DHT22;52192;52.002;5.956;2023-04-24T04:10:24;11.40;85.70
39045;DHT22;52192;52.002;5.956;2023-04-24T04:12:49;11.50;85.80
39045;DHT22;52192;52.002;5.956;2023-04-24T04:15:15;11.50;85.70
39045;DHT22;52192;52.002;5.956;2023-04-24T04:17:41;11.40;85.60
39045;DHT22;52192;52.002;5.956;2023-04-24T04:20:07;11.50;85.60
39045;DHT22;52192;52.002;5.956;2023-04-24T04:22:36;11.50;86.10
39045;DHT22;52192;52.002;5.956;2023-04-24T04:25:03;11.50;85.40
39045;DHT22;52192;52.002;5.956;2023-04-24T04:27:28;11.40;85.30
39045;DHT22;52192;52.002;5.956;2023-04-24T04:29:58;11.40;85.20
39045;DHT22;52192;52.002;5.956;2023-04-24T04:32:26;11.40;85.30
39045;DHT22;52192;52.002;5.956;2023-04-24T04:34:52;11.40;85.20
39045;DHT22;52192;52.002;5.956;2023-04-24T04:37:19;11.40;85.20
39045;DHT22;52192;52.002;5.956;2023-04-24T04:39:44;11.40;85.20
39045;DHT22;52192;52.002;5.956;2023-04-24T04:42:10;11.40;85.10
39045;DHT22;52192;52.002;5.956;2023-04-24T04:44:36;11.40;85.10
39045;DHT22;52192;52.002;5.956;2023-04-24T04:47:02;11.40;85.00
39045;DHT22;52192;52.002;5.956;2023-04-24T04:49:33;11.40;85.00
39045;DHT22;52192;52.002;5.956;2023-04-24T04:52:00;11.40;84.90
39045;DHT22;52192;52.002;5.956;2023-04-24T04:54:25;11.40;84.80
39045;DHT22;52192;52.002;5.956;2023-04-24T04:56:51;11.40;84.80
39045;DHT22;52192;52.002;5.956;2023-04-24T04:59:17;11.40;84.80
39045;DHT22;52192;52.002;5.956;2023-04-24T05:01:42;11.40;84.70
39045;DHT22;52192;52.002;5.956;2023-04-24T05:04:08;11.40;84.70
39045;DHT22;52192;52.002;5.956;2023-04-24T05:06:34;11.30;84.70
39045;DHT22;52192;52.002;5.956;2023-04-24T05:08:59;11.30;84.90
39045;DHT22;52192;52.002;5.956;2023-04-24T05:11:25;11.30;84.90
39045;DHT22;52192;52.002;5.956;2023-04-24T05:13:51;11.40;84.90
39045;DHT22;52192;52.002;5.956;2023-04-24T05:16:16;11.50;84.70
39045;DHT22;52192;52.002;5.956;2023-04-24T05:18:42;11.40;84.50
39045;DHT22;52192;52.002;5.956;2023-04-24T05:21:07;11.40;84.60
39045;DHT22;52192;52.002;5.956;2023-04-24T05:23:33;11.30;84.70
39045;DHT22;52192;52.002;5.956;2023-04-24T05:25:59;11.40;84.90
39045;DHT22;52192;52.002;5.956;2023-04-24T05:28:24;11.30;84.80
39045;DHT22;52192;52.002;5.956;2023-04-24T05:30:54;11.30;85.00
39045;DHT22;52192;52.002;5.956;2023-04-24T05:33:21;11.30;85.10
39045;DHT22;52192;52.002;5.956;2023-04-24T05:35:48;11.30;85.00
39045;DHT22;52192;52.002;5.956;2023-04-24T05:38:13;11.30;85.10
39045;DHT22;52192;52.002;5.956;2023-04-24T05:40:39;11.30;85.20
39045;DHT22;52192;52.002;5.956;2023-04-24T05:43:05;11.30;85.10
39045;DHT22;52192;52.002;5.956;2023-04-24T05:45:31;11.30;85.10
39045;DHT22;52192;52.002;5.956;2023-04-24T05:47:57;11.30;85.10
39045;DHT22;52192;52.002;5.956;2023-04-24T05:50:22;11.30;85.20
39045;DHT22;52192;52.002;5.956;2023-04-24T05:52:48;11.30;85.20
39045;DHT22;52192;52.002;5.956;2023-04-24T05:55:14;11.40;85.20
39045;DHT22;52192;52.002;5.956;2023-04-24T05:57:42;11.40;84.90
39045;DHT22;52192;52.002;5.956;2023-04-24T06:00:09;11.50;84.80
39045;DHT22;52192;52.002;5.956;2023-04-24T06:02:37;11.50;84.60
39045;DHT22;52192;52.002;5.956;2023-04-24T06:05:04;11.60;84.50
39045;DHT22;52192;52.002;5.956;2023-04-24T06:07:30;11.60;84.60
39045;DHT22;52192;52.002;5.956;2023-04-24T06:09:56;11.70;84.50
39045;DHT22;52192;52.002;5.956;2023-04-24T06:12:22;11.70;84.20
39045;DHT22;52192;52.002;5.956;2023-04-24T06:14:48;11.60;84.30
39045;DHT22;52192;52.002;5.956;2023-04-24T06:17:14;11.60;84.40
39045;DHT22;52192;52.002;5.956;2023-04-24T06:19:40;11.60;84.40
39045;DHT22;52192;52.002;5.956;2023-04-24T06:22:06;11.60;84.40
39045;DHT22;52192;52.002;5.956;2023-04-24T06:24:31;11.60;84.40
39045;DHT22;52192;52.002;5.956;2023-04-24T06:26:57;11.70;84.40
39045;DHT22;52192;52.002;5.956;2023-04-24T06:29:25;11.70;84.30
39045;DHT22;52192;52.002;5.956;2023-04-24T06:31:50;11.70;84.30
39045;DHT22;52192;52.002;5.956;2023-04-24T06:34:16;11.70;84.20
39045;DHT22;52192;52.002;5.956;2023-04-24T06:36:42;11.70;84.10
39045;DHT22;52192;52.002;5.956;2023-04-24T06:39:07;11.70;84.30
39045;DHT22;52192;52.002;5.956;2023-04-24T06:41:33;11.70;84.30
39045;DHT22;52192;52.002;5.956;2023-04-24T06:43:59;11.70;84.30
39045;DHT22;52192;52.002;5.956;2023-04-24T06:46:24;11.70;84.40
39045;DHT22;52192;52.002;5.956;2023-04-24T06:48:52;11.70;84.30
39045;DHT22;52192;52.002;5.956;2023-04-24T06:51:22;11.80;84.20
39045;DHT22;52192;52.002;5.956;2023-04-24T06:53:48;11.70;84.10
39045;DHT22;52192;52.002;5.956;2023-04-24T06:56:15;11.70;84.10
39045;DHT22;52192;52.002;5.956;2023-04-24T06:58:41;11.70;84.10
39045;DHT22;52192;52.002;5.956;2023-04-24T07:01:07;11.70;84.20
39045;DHT22;52192;52.002;5.956;2023-04-24T07:03:32;11.70;84.10
39045;DHT22;52192;52.002;5.956;2023-04-24T07:05:58;11.80;84.10
39045;DHT22;52192;52.002;5.956;2023-04-24T07:08:24;11.80;84.00
39045;DHT22;52192;52.002;5.956;2023-04-24T07:10:50;11.90;84.00
39045;DHT22;52192;52.002;5.956;2023-04-24T07:13:16;11.90;83.80
39045;DHT22;52192;52.002;5.956;2023-04-24T07:15:43;11.90;83.80
39045;DHT22;52192;52.002;5.956;2023-04-24T07:18:08;11.90;83.80
39045;DHT22;52192;52.002;5.956;2023-04-24T07:20:34;11.90;83.70
39045;DHT22;52192;52.002;5.956;2023-04-24T07:23:00;11.80;83.80
39045;DHT22;52192;52.002;5.956;2023-04-24T07:25:26;11.90;84.00
39045;DHT22;52192;52.002;5.956;2023-04-24T07:27:52;11.80;84.00
39045;DHT22;52192;52.002;5.956;2023-04-24T07:30:18;11.80;84.00
39045;DHT22;52192;52.002;5.956;2023-04-24T07:32:44;11.70;84.00
39045;DHT22;52192;52.002;5.956;2023-04-24T07:35:09;11.70;84.10
39045;DHT22;52192;52.002;5.956;2023-04-24T07:37:36;11.60;84.30
39045;DHT22;52192;52.002;5.956;2023-04-24T07:40:01;11.50;84.40
39045;DHT22;52192;52.002;5.956;2023-04-24T07:42:28;11.60;84.60
39045;DHT22;52192;52.002;5.956;2023-04-24T07:44:55;11.50;84.70
39045;DHT22;52192;52.002;5.956;2023-04-24T07:47:21;11.50;84.90
39045;DHT22;52192;52.002;5.956;2023-04-24T07:49:47;11.50;85.00
39045;DHT22;52192;52.002;5.956;2023-04-24T07:52:13;11.50;85.00
39045;DHT22;52192;52.002;5.956;2023-04-24T07:54:38;11.40;85.00
39045;DHT22;52192;52.002;5.956;2023-04-24T07:57:04;11.40;85.00
39045;DHT22;52192;52.002;5.956;2023-04-24T07:59:32;11.50;84.90
39045;DHT22;52192;52.002;5.956;2023-04-24T08:01:57;11.40;84.80
39045;DHT22;52192;52.002;5.956;2023-04-24T08:04:23;11.40;84.90
39045;DHT22;52192;52.002;5.956;2023-04-24T08:06:49;11.30;84.90
39045;DHT22;52192;52.002;5.956;2023-04-24T08:09:14;11.20;84.70
39045;DHT22;52192;52.002;5.956;2023-04-24T08:11:40;11.10;84.70
39045;DHT22;52192;52.002;5.956;2023-04-24T08:14:06;11.10;85.30
39045;DHT22;52192;52.002;5.956;2023-04-24T08:16:32;11.10;84.70
39045;DHT22;52192;52.002;5.956;2023-04-24T08:18:58;11.10;84.50
39045;DHT22;52192;52.002;5.956;2023-04-24T08:21:24;11.00;84.50
39045;DHT22;52192;52.002;5.956;2023-04-24T08:23:52;11.00;84.60
39045;DHT22;52192;52.002;5.956;2023-04-24T08:26:18;11.00;84.60
39045;DHT22;52192;52.002;5.956;2023-04-24T08:28:44;11.00;84.50
39045;DHT22;52192;52.002;5.956;2023-04-24T08:31:09;11.00;84.50
39045;DHT22;52192;52.002;5.956;2023-04-24T08:33:35;11.00;84.60
39045;DHT22;52192;52.002;5.956;2023-04-24T08:36:05;11.00;84.70
39045;DHT22;52192;52.002;5.956;2023-04-24T08:38:31;11.00;84.50
39045;DHT22;52192;52.002;5.956;2023-04-24T08:40:58;11.00;84.60
39045;DHT22;52192;52.002;5.956;2023-04-24T08:43:25;11.10;84.70
39045;DHT22;52192;52.002;5.956;2023-04-24T08:45:52;11.00;84.70
39045;DHT22;52192;52.002;5.956;2023-04-24T08:48:18;11.00;84.70
39045;DHT22;52192;52.002;5.956;2023-04-24T08:50:44;11.00;84.70
39045;DHT22;52192;52.002;5.956;2023-04-24T08:53:10;11.00;84.70
39045;DHT22;52192;52.002;5.956;2023-04-24T08:55:37;11.00;84.70
39045;DHT22;52192;52.002;5.956;2023-04-24T08:58:04;11.00;84.80
39045;DHT22;52192;52.002;5.956;2023-04-24T09:00:30;11.00;85.00
39045;DHT22;52192;52.002;5.956;2023-04-24T09:02:56;11.00;85.00
39045;DHT22;52192;52.002;5.956;2023-04-24T09:05:23;11.10;84.90
39045;DHT22;52192;52.002;5.956;2023-04-24T09:07:55;11.10;84.70
39045;DHT22;52192;52.002;5.956;2023-04-24T09:10:23;11.10;84.80
39045;DHT22;52192;52.002;5.956;2023-04-24T09:12:50;11.10;84.60
39045;DHT22;52192;52.002;5.956;2023-04-24T09:15:17;11.10;84.40
39045;DHT22;52192;52.002;5.956;2023-04-24T09:17:43;11.10;84.50
39045;DHT22;52192;52.002;5.956;2023-04-24T09:20:10;11.00;84.10
39045;DHT22;52192;52.002;5.956;2023-04-24T09:22:36;10.90;84.00
39045;DHT22;52192;52.002;5.956;2023-04-24T09:25:07;10.90;84.00
39045;DHT22;52192;52.002;5.956;2023-04-24T09:27:34;10.90;83.90
39045;DHT22;52192;52.002;5.956;2023-04-24T09:30:01;10.90;83.90
39045;DHT22;52192;52.002;5.956;2023-04-24T09:32:27;10.90;83.90
39045;DHT22;52192;52.002;5.956;2023-04-24T09:35:09;10.90;84.00
39045;DHT22;52192;52.002;5.956;2023-04-24T09:37:38;11.00;83.90
39045;DHT22;52192;52.002;5.956;2023-04-24T09:40:12;11.00;83.80
39045;DHT22;52192;52.002;5.956;2023-04-24T09:42:38;11.10;83.60
39045;DHT22;52192;52.002;5.956;2023-04-24T09:45:11;11.10;83.40
39045;DHT22;52192;52.002;5.956;2023-04-24T09:47:39;11.10;83.30
39045;DHT22;52192;52.002;5.956;2023-04-24T09:50:16;11.20;83.20
39045;DHT22;52192;52.002;5.956;2023-04-24T09:52:47;11.20;83.00
39045;DHT22;52192;52.002;5.956;2023-04-24T09:55:21;11.30;82.60
39045;DHT22;52192;52.002;5.956;2023-04-24T09:58:00;11.40;81.60
39045;DHT22;52192;52.002;5.956;2023-04-24T10:00:28;11.40;81.40
39045;DHT22;52192;52.002;5.956;2023-04-24T10:03:04;11.50;81.10
39045;DHT22;52192;52.002;5.956;2023-04-24T10:05:35;11.50;79.90
39045;DHT22;52192;52.002;5.956;2023-04-24T10:08:09;11.50;80.10
39045;DHT22;52192;52.002;5.956;2023-04-24T10:10:42;11.70;80.20
39045;DHT22;52192;52.002;5.956;2023-04-24T10:13:09;11.70;80.00
39045;DHT22;52192;52.002;5.956;2023-04-24T10:15:36;11.80;79.90
39045;DHT22;52192;52.002;5.956;2023-04-24T10:18:02;11.90;79.70
39045;DHT22;52192;52.002;5.956;2023-04-24T10:20:30;12.00;78.80
39045;DHT22;52192;52.002;5.956;2023-04-24T10:22:57;12.00;77.80
39045;DHT22;52192;52.002;5.956;2023-04-24T10:25:25;12.10;77.20
39045;DHT22;52192;52.002;5.956;2023-04-24T10:27:52;12.20;77.10
39045;DHT22;52192;52.002;5.956;2023-04-24T10:30:21;12.50;75.70
39045;DHT22;52192;52.002;5.956;2023-04-24T10:32:46;12.60;75.60
39045;DHT22;52192;52.002;5.956;2023-04-24T10:35:13;12.70;75.40
39045;DHT22;52192;52.002;5.956;2023-04-24T10:37:45;12.90;75.00
39045;DHT22;52192;52.002;5.956;2023-04-24T10:40:16;13.00;75.00
39045;DHT22;52192;52.002;5.956;2023-04-24T10:42:42;12.90;74.50
39045;DHT22;52192;52.002;5.956;2023-04-24T10:45:23;12.70;74.40
39045;DHT22;52192;52.002;5.956;2023-04-24T10:48:06;12.60;74.90
39045;DHT22;52192;52.002;5.956;2023-04-24T10:50:52;12.50;74.50
39045;DHT22;52192;52.002;5.956;2023-04-24T10:53:24;12.40;74.40
39045;DHT22;52192;52.002;5.956;2023-04-24T10:56:12;12.30;74.60
39045;DHT22;52192;52.002;5.956;2023-04-24T10:58:43;12.30;74.90
39045;DHT22;52192;52.002;5.956;2023-04-24T11:04:00;12.20;73.90
39045;DHT22;52192;52.002;5.956;2023-04-24T11:06:33;12.20;74.40
39045;DHT22;52192;52.002;5.956;2023-04-24T11:09:04;12.30;74.30
39045;DHT22;52192;52.002;5.956;2023-04-24T11:11:34;12.40;72.40
39045;DHT22;52192;52.002;5.956;2023-04-24T11:14:00;12.40;71.80
39045;DHT22;52192;52.002;5.956;2023-04-24T11:16:44;12.30;72.00
39045;DHT22;52192;52.002;5.956;2023-04-24T11:19:18;12.20;72.50
39045;DHT22;52192;52.002;5.956;2023-04-24T11:22:01;12.10;73.00
39045;DHT22;52192;52.002;5.956;2023-04-24T11:34:48;12.60;72.60
39045;DHT22;52192;52.002;5.956;2023-04-24T11:37:14;12.70;71.10
39045;DHT22;52192;52.002;5.956;2023-04-24T11:39:40;12.60;71.50
39045;DHT22;52192;52.002;5.956;2023-04-24T11:42:07;12.60;71.00
39045;DHT22;52192;52.002;5.956;2023-04-24T11:44:34;12.60;71.10
39045;DHT22;52192;52.002;5.956;2023-04-24T11:47:04;12.60;70.70
39045;DHT22;52192;52.002;5.956;2023-04-24T11:49:30;12.60;70.80
39045;DHT22;52192;52.002;5.956;2023-04-24T11:51:56;12.60;70.20
39045;DHT22;52192;52.002;5.956;2023-04-24T11:54:22;12.70;70.30
39045;DHT22;52192;52.002;5.956;2023-04-24T11:56:48;12.70;70.00
39045;DHT22;52192;52.002;5.956;2023-04-24T11:59:15;12.60;70.10
39045;DHT22;52192;52.002;5.956;2023-04-24T12:01:44;12.50;69.40
39045;DHT22;52192;52.002;5.956;2023-04-24T12:04:10;12.40;69.80
39045;DHT22;52192;52.002;5.956;2023-04-24T12:06:36;12.30;69.80
39045;DHT22;52192;52.002;5.956;2023-04-24T12:09:02;12.10;69.60
39045;DHT22;52192;52.002;5.956;2023-04-24T12:11:28;12.00;70.50
39045;DHT22;52192;52.002;5.956;2023-04-24T12:13:54;11.90;71.20
39045;DHT22;52192;52.002;5.956;2023-04-24T12:16:19;11.80;71.90
39045;DHT22;52192;52.002;5.956;2023-04-24T12:18:45;11.60;72.60
39045;DHT22;52192;52.002;5.956;2023-04-24T12:21:15;11.50;74.10
39045;DHT22;52192;52.002;5.956;2023-04-24T12:23:46;11.60;74.70
39045;DHT22;52192;52.002;5.956;2023-04-24T12:26:16;11.70;74.30
39045;DHT22;52192;52.002;5.956;2023-04-24T12:28:42;12.00;74.10
39045;DHT22;52192;52.002;5.956;2023-04-24T12:31:08;12.20;73.80
39045;DHT22;52192;52.002;5.956;2023-04-24T12:33:34;12.50;73.80
39045;DHT22;52192;52.002;5.956;2023-04-24T12:36:01;12.80;73.40
39045;DHT22;52192;52.002;5.956;2023-04-24T12:38:28;13.00;72.30
39045;DHT22;52192;52.002;5.956;2023-04-24T12:41:12;13.20;71.90
39045;DHT22;52192;52.002;5.956;2023-04-24T12:43:38;13.40;70.70
39045;DHT22;52192;52.002;5.956;2023-04-24T12:46:15;13.60;69.80
39045;DHT22;52192;52.002;5.956;2023-04-24T12:48:41;13.60;68.00
39045;DHT22;52192;52.002;5.956;2023-04-24T12:51:07;13.50;67.70
39045;DHT22;52192;52.002;5.956;2023-04-24T12:53:32;13.40;67.90
39045;DHT22;52192;52.002;5.956;2023-04-24T12:55:58;13.20;67.80
39045;DHT22;52192;52.002;5.956;2023-04-24T12:58:24;13.10;68.10
39045;DHT22;52192;52.002;5.956;2023-04-24T13:00:50;13.00;68.40
39045;DHT22;52192;52.002;5.956;2023-04-24T13:03:16;12.80;67.40
39045;DHT22;52192;52.002;5.956;2023-04-24T13:05:42;12.70;68.40
39045;DHT22;52192;52.002;5.956;2023-04-24T13:08:09;12.80;68.40
39045;DHT22;52192;52.002;5.956;2023-04-24T13:10:35;12.80;67.00
39045;DHT22;52192;52.002;5.956;2023-04-24T13:13:00;12.80;66.60
39045;DHT22;52192;52.002;5.956;2023-04-24T13:15:26;12.90;67.20
39045;DHT22;52192;52.002;5.956;2023-04-24T13:17:52;13.00;66.80
39045;DHT22;52192;52.002;5.956;2023-04-24T13:20:18;13.10;66.70
39045;DHT22;52192;52.002;5.956;2023-04-24T13:22:43;13.10;65.00
39045;DHT22;52192;52.002;5.956;2023-04-24T13:25:09;13.00;65.40
39045;DHT22;52192;52.002;5.956;2023-04-24T13:27:37;12.90;65.80
39045;DHT22;52192;52.002;5.956;2023-04-24T13:30:03;12.80;66.40
39045;DHT22;52192;52.002;5.956;2023-04-24T13:32:29;12.80;66.90
39045;DHT22;52192;52.002;5.956;2023-04-24T13:34:56;12.70;66.80
39045;DHT22;52192;52.002;5.956;2023-04-24T13:37:21;12.60;67.00
39045;DHT22;52192;52.002;5.956;2023-04-24T13:39:48;12.50;67.50
39045;DHT22;52192;52.002;5.956;2023-04-24T13:42:13;12.40;67.60
39045;DHT22;52192;52.002;5.956;2023-04-24T13:44:41;12.40;68.10
39045;DHT22;52192;52.002;5.956;2023-04-24T13:47:07;12.50;68.10
39045;DHT22;52192;52.002;5.956;2023-04-24T13:49:32;12.50;67.80
39045;DHT22;52192;52.002;5.956;2023-04-24T13:51:58;12.50;67.90
39045;DHT22;52192;52.002;5.956;2023-04-24T13:54:24;12.50;67.60
39045;DHT22;52192;52.002;5.956;2023-04-24T13:56:51;12.50;67.60
39045;DHT22;52192;52.002;5.956;2023-04-24T13:59:17;12.40;68.10
39045;DHT22;52192;52.002;5.956;2023-04-24T14:01:44;12.30;69.00
39045;DHT22;52192;52.002;5.956;2023-04-24T14:04:10;12.30;69.60
39045;DHT22;52192;52.002;5.956;2023-04-24T14:06:36;12.30;70.00
39045;DHT22;52192;52.002;5.956;2023-04-24T14:09:02;12.50;70.40
39045;DHT22;52192;52.002;5.956;2023-04-24T14:11:28;13.00;70.30
39045;DHT22;52192;52.002;5.956;2023-04-24T14:13:55;13.50;69.30
39045;DHT22;52192;52.002;5.956;2023-04-24T14:16:23;13.80;67.50
39045;DHT22;52192;52.002;5.956;2023-04-24T14:18:49;14.10;67.50
39045;DHT22;52192;52.002;5.956;2023-04-24T14:21:15;14.10;67.00
39045;DHT22;52192;52.002;5.956;2023-04-24T14:23:41;14.00;64.80
39045;DHT22;52192;52.002;5.956;2023-04-24T14:26:07;13.70;63.10
39045;DHT22;52192;52.002;5.956;2023-04-24T14:28:32;13.50;63.40
39045;DHT22;52192;52.002;5.956;2023-04-24T14:30:58;13.40;62.60
39045;DHT22;52192;52.002;5.956;2023-04-24T14:33:23;13.40;62.80
39045;DHT22;52192;52.002;5.956;2023-04-24T14:35:49;13.40;62.70
39045;DHT22;52192;52.002;5.956;2023-04-24T14:38:15;13.40;63.10
39045;DHT22;52192;52.002;5.956;2023-04-24T14:40:41;13.30;63.20
39045;DHT22;52192;52.002;5.956;2023-04-24T14:43:07;13.20;62.50
39045;DHT22;52192;52.002;5.956;2023-04-24T14:45:32;13.10;62.70
39045;DHT22;52192;52.002;5.956;2023-04-24T14:47:58;13.00;63.00
39045;DHT22;52192;52.002;5.956;2023-04-24T14:50:24;12.90;62.90
39045;DHT22;52192;52.002;5.956;2023-04-24T14:52:55;12.90;62.70
39045;DHT22;52192;52.002;5.956;2023-04-24T14:55:25;12.90;63.30
39045;DHT22;52192;52.002;5.956;2023-04-24T14:57:51;12.90;62.60
39045;DHT22;52192;52.002;5.956;2023-04-24T15:00:18;12.90;62.40
39045;DHT22;52192;52.002;5.956;2023-04-24T15:02:45;13.00;61.40
39045;DHT22;52192;52.002;5.956;2023-04-24T15:05:11;13.10;61.00
39045;DHT22;52192;52.002;5.956;2023-04-24T15:07:37;13.00;60.40
39045;DHT22;52192;52.002;5.956;2023-04-24T15:10:03;13.00;60.10
39045;DHT22;52192;52.002;5.956;2023-04-24T15:12:29;13.00;60.30
39045;DHT22;52192;52.002;5.956;2023-04-24T15:14:55;13.10;60.60
39045;DHT22;52192;52.002;5.956;2023-04-24T15:17:22;13.10;60.20
39045;DHT22;52192;52.002;5.956;2023-04-24T15:19:48;13.20;60.60
39045;DHT22;52192;52.002;5.956;2023-04-24T15:22:13;13.30;60.10
39045;DHT22;52192;52.002;5.956;2023-04-24T15:24:39;13.30;60.00
39045;DHT22;52192;52.002;5.956;2023-04-24T15:27:05;13.20;59.90
39045;DHT22;52192;52.002;5.956;2023-04-24T15:29:31;13.10;60.10
39045;DHT22;52192;52.002;5.956;2023-04-24T15:31:56;13.10;60.20
39045;DHT22;52192;52.002;5.956;2023-04-24T15:34:22;13.00;59.60
39045;DHT22;52192;52.002;5.956;2023-04-24T15:36:48;13.00;60.00
39045;DHT22;52192;52.002;5.956;2023-04-24T15:39:14;13.00;60.40
39045;DHT22;52192;52.002;5.956;2023-04-24T15:41:39;13.10;60.10